sensor_id;sensor_type;location;lat;lon;timestamp;pressure;altitude;pressure_sealevel;temperature;humidity
3544;BME280;1786;52.870;9.578;2023-12-07T00:02:25;100760.94;;;11.17;57.04
3544;BME280;1786;52.870;9.578;2023-12-07T00:04:52;100759.81;;;11.07;57.41
3544;BME280;1786;52.870;9.578;2023-12-07T00:07:19;100764.44;;;11.18;56.93
3544;BME280;1786;52.870;9.578;2023-12-07T00:09:45;100770.00;;;11.27;57.13
3544;BME280;1786;52.870;9.578;2023-12-07T00:12:12;100760.13;;;11.44;56.41
3544;BME280;1786;52.870;9.578;2023-12-07T00:14:39;100762.31;;;11.37;56.61
3544;BME280;1786;52.870;9.578;2023-12-07T00:17:05;100758.06;;;11.49;56.46
3544;BME280;1786;52.870;9.578;2023-12-07T00:19:32;100769.06;;;11.56;56.25
3544;BME280;1786;52.870;9.578;2023-12-07T00:21:59;100767.03;;;11.74;55.82
3544;BME280;1786;52.870;9.578;2023-12-07T00:24:26;100779.38;;;11.60;56.16
3544;BME280;1786;52.870;9.578;2023-12-07T00:26:52;100784.19;;;11.54;56.18
3544;BME280;1786;52.870;9.578;2023-12-07T00:29:19;100784.09;;;11.55;56.44
3544;BME280;1786;52.870;9.578;2023-12-07T00:31:45;100782.53;;;11.38;56.73
3544;BME280;1786;52.870;9.578;2023-12-07T00:34:12;100778.09;;;11.39;56.80
3544;BME280;1786;52.870;9.578;2023-12-07T00:36:39;100786.91;;;11.25;57.36
3544;BME280;1786;52.870;9.578;2023-12-07T00:39:07;100780.56;;;11.27;56.82
3544;BME280;1786;52.870;9.578;2023-12-07T00:41:35;100789.63;;;11.23;57.02
3544;BME280;1786;52.870;9.578;2023-12-07T00:44:01;100782.84;;;11.19;56.98
3544;BME280;1786;52.870;9.578;2023-12-07T00:46:28;100787.66;;;11.27;57.25
3544;BME280;1786;52.870;9.578;2023-12-07T00:48:54;100779.25;;;11.35;56.77
3544;BME280;1786;52.870;9.578;2023-12-07T00:51:21;100794.06;;;11.52;56.25
3544;BME280;1786;52.870;9.578;2023-12-07T00:53:48;100796.84;;;11.21;57.03
3544;BME280;1786;52.870;9.578;2023-12-07T00:56:14;100801.75;;;10.99;57.68
3544;BME280;1786;52.870;9.578;2023-12-07T00:58:41;100798.16;;;11.00;57.78
3544;BME280;1786;52.870;9.578;2023-12-07T01:01:08;100801.72;;;11.42;56.68
3544;BME280;1786;52.870;9.578;2023-12-07T01:03:35;100794.34;;;11.33;57.33
3544;BME280;1786;52.870;9.578;2023-12-07T01:06:01;100806.13;;;11.41;56.87
3544;BME280;1786;52.870;9.578;2023-12-07T01:08:28;100807.22;;;11.66;56.27
3544;BME280;1786;52.870;9.578;2023-12-07T01:10:54;100810.69;;;11.81;55.79
3544;BME280;1786;52.870;9.578;2023-12-07T01:13:21;100813.19;;;11.69;56.22
3544;BME280;1786;52.870;9.578;2023-12-07T01:15:48;100816.94;;;11.80;55.76
3544;BME280;1786;52.870;9.578;2023-12-07T01:18:14;100821.28;;;11.95;55.53
3544;BME280;1786;52.870;9.578;2023-12-07T01:20:41;100823.38;;;11.90;55.32
3544;BME280;1786;52.870;9.578;2023-12-07T01:23:08;100825.00;;;12.05;55.16
3544;BME280;1786;52.870;9.578;2023-12-07T01:25:35;100837.28;;;12.06;55.07
3544;BME280;1786;52.870;9.578;2023-12-07T01:28:02;100835.81;;;12.02;55.24
3544;BME280;1786;52.870;9.578;2023-12-07T01:30:29;100838.59;;;12.13;55.02
3544;BME280;1786;52.870;9.578;2023-12-07T01:32:56;100844.94;;;12.11;54.89
3544;BME280;1786;52.870;9.578;2023-12-07T01:35:22;100842.50;;;12.08;55.39
3544;BME280;1786;52.870;9.578;2023-12-07T01:37:49;100850.16;;;12.12;55.06
3544;BME280;1786;52.870;9.578;2023-12-07T01:40:16;100850.59;;;11.92;55.24
3544;BME280;1786;52.870;9.578;2023-12-07T01:42:50;100851.25;;;11.96;55.60
3544;BME280;1786;52.870;9.578;2023-12-07T01:45:17;100852.38;;;11.91;55.33
3544;BME280;1786;52.870;9.578;2023-12-07T01:47:44;100853.81;;;11.97;55.26
3544;BME280;1786;52.870;9.578;2023-12-07T01:50:12;100848.63;;;12.08;55.20
3544;BME280;1786;52.870;9.578;2023-12-07T01:52:44;100856.38;;;12.11;55.03
3544;BME280;1786;52.870;9.578;2023-12-07T01:55:12;100859.41;;;12.20;55.04
3544;BME280;1786;52.870;9.578;2023-12-07T01:57:40;100857.47;;;12.22;54.66
3544;BME280;1786;52.870;9.578;2023-12-07T02:00:07;100854.91;;;12.07;55.03
3544;BME280;1786;52.870;9.578;2023-12-07T02:02:35;100855.78;;;12.21;54.91
3544;BME280;1786;52.870;9.578;2023-12-07T02:05:02;100845.78;;;12.11;55.00
3544;BME280;1786;52.870;9.578;2023-12-07T02:07:30;100856.38;;;12.11;55.25
3544;BME280;1786;52.870;9.578;2023-12-07T02:09:57;100856.75;;;12.20;54.95
3544;BME280;1786;52.870;9.578;2023-12-07T02:12:24;100860.63;;;12.14;54.76
3544;BME280;1786;52.870;9.578;2023-12-07T02:14:52;100859.63;;;12.29;54.61
3544;BME280;1786;52.870;9.578;2023-12-07T02:20:15;100868.44;;;12.30;54.77
3544;BME280;1786;52.870;9.578;2023-12-07T02:22:52;100869.16;;;12.32;54.64
3544;BME280;1786;52.870;9.578;2023-12-07T02:25:24;100861.38;;;12.16;54.99
3544;BME280;1786;52.870;9.578;2023-12-07T02:27:52;100865.13;;;12.26;54.54
3544;BME280;1786;52.870;9.578;2023-12-07T02:30:19;100857.88;;;12.16;55.07
3544;BME280;1786;52.870;9.578;2023-12-07T02:32:45;100868.94;;;12.22;54.83
3544;BME280;1786;52.870;9.578;2023-12-07T02:35:13;100871.47;;;12.24;54.72
3544;BME280;1786;52.870;9.578;2023-12-07T02:37:49;100873.91;;;12.27;54.80
3544;BME280;1786;52.870;9.578;2023-12-07T02:40:24;100864.91;;;12.29;54.77
3544;BME280;1786;52.870;9.578;2023-12-07T02:42:52;100870.34;;;12.28;54.38
3544;BME280;1786;52.870;9.578;2023-12-07T02:45:20;100868.84;;;12.37;54.62
3544;BME280;1786;52.870;9.578;2023-12-07T02:47:47;100868.63;;;12.27;54.59
3544;BME280;1786;52.870;9.578;2023-12-07T02:50:14;100867.72;;;12.13;54.49
3544;BME280;1786;52.870;9.578;2023-12-07T02:52:41;100874.22;;;11.95;55.07
3544;BME280;1786;52.870;9.578;2023-12-07T02:55:08;100874.00;;;12.12;54.54
3544;BME280;1786;52.870;9.578;2023-12-07T02:57:36;100863.91;;;12.05;54.58
3544;BME280;1786;52.870;9.578;2023-12-07T03:00:03;100871.03;;;12.17;54.74
3544;BME280;1786;52.870;9.578;2023-12-07T03:02:35;100873.38;;;12.22;54.68
3544;BME280;1786;52.870;9.578;2023-12-07T03:05:02;100875.88;;;12.10;54.68
3544;BME280;1786;52.870;9.578;2023-12-07T03:07:29;100874.53;;;12.18;54.68
3544;BME280;1786;52.870;9.578;2023-12-07T03:09:56;100874.03;;;12.25;54.60
3544;BME280;1786;52.870;9.578;2023-12-07T03:12:22;100875.22;;;12.07;54.56
3544;BME280;1786;52.870;9.578;2023-12-07T03:14:50;100878.38;;;11.85;55.12
3544;BME280;1786;52.870;9.578;2023-12-07T03:17:16;100873.59;;;11.77;55.29
3544;BME280;1786;52.870;9.578;2023-12-07T03:19:43;100877.75;;;11.67;55.51
3544;BME280;1786;52.870;9.578;2023-12-07T03:22:10;100878.69;;;11.80;55.24
3544;BME280;1786;52.870;9.578;2023-12-07T03:24:37;100881.34;;;11.95;54.94
3544;BME280;1786;52.870;9.578;2023-12-07T03:27:04;100881.56;;;12.04;54.88
3544;BME280;1786;52.870;9.578;2023-12-07T03:29:31;100879.84;;;12.18;54.63
3544;BME280;1786;52.870;9.578;2023-12-07T03:31:58;100886.47;;;12.10;54.56
3544;BME280;1786;52.870;9.578;2023-12-07T03:34:24;100891.81;;;11.96;55.04
3544;BME280;1786;52.870;9.578;2023-12-07T03:36:51;100882.00;;;11.69;55.78
3544;BME280;1786;52.870;9.578;2023-12-07T03:39:18;100882.44;;;11.76;55.35
3544;BME280;1786;52.870;9.578;2023-12-07T03:41:45;100878.00;;;11.91;55.12
3544;BME280;1786;52.870;9.578;2023-12-07T03:44:12;100888.16;;;12.11;54.58
3544;BME280;1786;52.870;9.578;2023-12-07T03:46:38;100893.16;;;12.16;54.49
3544;BME280;1786;52.870;9.578;2023-12-07T03:49:05;100891.56;;;12.13;54.56
3544;BME280;1786;52.870;9.578;2023-12-07T03:51:32;100896.03;;;12.13;54.67
3544;BME280;1786;52.870;9.578;2023-12-07T03:53:58;100901.75;;;11.93;54.45
3544;BME280;1786;52.870;9.578;2023-12-07T03:56:26;100904.84;;;11.99;54.94
3544;BME280;1786;52.870;9.578;2023-12-07T03:58:53;100913.09;;;11.95;55.09
3544;BME280;1786;52.870;9.578;2023-12-07T04:01:24;100911.00;;;12.00;55.03
3544;BME280;1786;52.870;9.578;2023-12-07T04:03:52;100916.53;;;12.09;55.02
3544;BME280;1786;52.870;9.578;2023-12-07T04:06:20;100911.16;;;12.11;54.52
3544;BME280;1786;52.870;9.578;2023-12-07T04:08:47;100918.31;;;11.67;55.74
3544;BME280;1786;52.870;9.578;2023-12-07T04:11:14;100913.28;;;11.91;55.56
3544;BME280;1786;52.870;9.578;2023-12-07T04:13:42;100909.78;;;11.91;55.08
3544;BME280;1786;52.870;9.578;2023-12-07T04:16:09;100916.03;;;11.90;55.24
3544;BME280;1786;52.870;9.578;2023-12-07T04:18:37;100910.16;;;11.70;55.72
3544;BME280;1786;52.870;9.578;2023-12-07T04:21:04;100909.50;;;11.96;55.23
3544;BME280;1786;52.870;9.578;2023-12-07T04:23:31;100916.78;;;11.78;55.50
3544;BME280;1786;52.870;9.578;2023-12-07T04:25:58;100917.09;;;11.87;55.64
3544;BME280;1786;52.870;9.578;2023-12-07T04:28:25;100927.66;;;11.59;56.15
3544;BME280;1786;52.870;9.578;2023-12-07T04:30:51;100933.91;;;11.72;55.85
3544;BME280;1786;52.870;9.578;2023-12-07T04:33:19;100919.72;;;11.59;56.54
3544;BME280;1786;52.870;9.578;2023-12-07T04:35:45;100924.91;;;11.89;55.80
3544;BME280;1786;52.870;9.578;2023-12-07T04:38:12;100924.81;;;12.05;55.24
3544;BME280;1786;52.870;9.578;2023-12-07T04:40:39;100926.13;;;12.12;55.04
3544;BME280;1786;52.870;9.578;2023-12-07T04:43:06;100922.44;;;12.15;54.92
3544;BME280;1786;52.870;9.578;2023-12-07T04:45:32;100923.69;;;12.22;54.98
3544;BME280;1786;52.870;9.578;2023-12-07T04:47:59;100929.56;;;12.27;54.87
3544;BME280;1786;52.870;9.578;2023-12-07T04:50:27;100923.88;;;12.33;54.39
3544;BME280;1786;52.870;9.578;2023-12-07T04:52:53;100914.13;;;12.33;54.53
3544;BME280;1786;52.870;9.578;2023-12-07T04:55:21;100920.13;;;12.23;54.42
3544;BME280;1786;52.870;9.578;2023-12-07T04:57:47;100921.72;;;12.25;54.33
3544;BME280;1786;52.870;9.578;2023-12-07T05:00:14;100914.75;;;12.37;54.49
3544;BME280;1786;52.870;9.578;2023-12-07T05:02:41;100915.72;;;12.36;54.42
3544;BME280;1786;52.870;9.578;2023-12-07T05:05:08;100916.44;;;12.25;54.45
3544;BME280;1786;52.870;9.578;2023-12-07T05:07:35;100923.81;;;12.20;54.83
3544;BME280;1786;52.870;9.578;2023-12-07T05:10:02;100917.06;;;12.29;54.30
3544;BME280;1786;52.870;9.578;2023-12-07T05:12:29;100920.22;;;12.21;54.30
3544;BME280;1786;52.870;9.578;2023-12-07T05:14:56;100922.03;;;12.06;54.90
3544;BME280;1786;52.870;9.578;2023-12-07T05:17:23;100924.66;;;12.21;54.63
3544;BME280;1786;52.870;9.578;2023-12-07T05:19:49;100918.78;;;12.30;54.77
3544;BME280;1786;52.870;9.578;2023-12-07T05:22:17;100915.63;;;12.38;54.28
3544;BME280;1786;52.870;9.578;2023-12-07T05:24:43;100919.66;;;12.43;53.97
3544;BME280;1786;52.870;9.578;2023-12-07T05:27:10;100918.31;;;12.50;53.96
3544;BME280;1786;52.870;9.578;2023-12-07T05:29:36;100921.72;;;12.52;54.01
3544;BME280;1786;52.870;9.578;2023-12-07T05:32:05;100929.47;;;12.55;53.64
3544;BME280;1786;52.870;9.578;2023-12-07T05:34:32;100932.13;;;12.55;54.03
3544;BME280;1786;52.870;9.578;2023-12-07T05:37:00;100929.38;;;12.30;54.14
3544;BME280;1786;52.870;9.578;2023-12-07T05:39:27;100922.16;;;12.32;54.30
3544;BME280;1786;52.870;9.578;2023-12-07T05:41:53;100923.47;;;12.39;54.20
3544;BME280;1786;52.870;9.578;2023-12-07T05:44:20;100927.59;;;12.16;54.43
3544;BME280;1786;52.870;9.578;2023-12-07T05:46:49;100929.06;;;12.34;54.07
3544;BME280;1786;52.870;9.578;2023-12-07T05:49:16;100942.25;;;12.22;54.25
3544;BME280;1786;52.870;9.578;2023-12-07T05:51:43;100940.16;;;12.27;54.56
3544;BME280;1786;52.870;9.578;2023-12-07T05:54:09;100939.56;;;12.36;53.92
3544;BME280;1786;52.870;9.578;2023-12-07T05:56:36;100935.56;;;12.43;54.37
3544;BME280;1786;52.870;9.578;2023-12-07T05:59:02;100934.59;;;12.44;54.22
3544;BME280;1786;52.870;9.578;2023-12-07T06:01:29;100935.06;;;12.24;54.54
3544;BME280;1786;52.870;9.578;2023-12-07T06:03:56;100939.56;;;12.36;53.82
3544;BME280;1786;52.870;9.578;2023-12-07T06:06:23;100942.50;;;12.31;54.14
3544;BME280;1786;52.870;9.578;2023-12-07T06:08:51;100938.16;;;12.30;54.05
3544;BME280;1786;52.870;9.578;2023-12-07T06:11:17;100943.34;;;12.32;54.14
3544;BME280;1786;52.870;9.578;2023-12-07T06:13:44;100951.00;;;12.37;54.25
3544;BME280;1786;52.870;9.578;2023-12-07T06:16:12;100946.47;;;12.39;53.77
3544;BME280;1786;52.870;9.578;2023-12-07T06:18:40;100939.91;;;12.44;53.78
3544;BME280;1786;52.870;9.578;2023-12-07T06:21:07;100951.06;;;12.49;53.77
3544;BME280;1786;52.870;9.578;2023-12-07T06:23:33;100952.97;;;12.47;54.01
3544;BME280;1786;52.870;9.578;2023-12-07T06:26:01;100951.28;;;11.76;55.67
3544;BME280;1786;52.870;9.578;2023-12-07T06:28:28;100946.06;;;12.18;54.39
3544;BME280;1786;52.870;9.578;2023-12-07T06:30:55;100955.69;;;12.19;54.35
3544;BME280;1786;52.870;9.578;2023-12-07T06:33:23;100957.84;;;12.26;54.24
3544;BME280;1786;52.870;9.578;2023-12-07T06:35:50;100966.69;;;12.40;54.02
3544;BME280;1786;52.870;9.578;2023-12-07T06:38:16;100958.69;;;12.27;54.30
3544;BME280;1786;52.870;9.578;2023-12-07T06:40:47;100963.28;;;12.25;54.51
3544;BME280;1786;52.870;9.578;2023-12-07T06:43:13;100959.88;;;12.08;54.88
3544;BME280;1786;52.870;9.578;2023-12-07T06:45:40;100963.91;;;11.87;55.19
3544;BME280;1786;52.870;9.578;2023-12-07T06:48:07;100967.25;;;12.18;55.02
3544;BME280;1786;52.870;9.578;2023-12-07T06:50:34;100974.25;;;12.19;54.94
3544;BME280;1786;52.870;9.578;2023-12-07T06:53:01;100973.00;;;12.24;54.57
3544;BME280;1786;52.870;9.578;2023-12-07T06:55:28;100973.09;;;12.23;54.42
3544;BME280;1786;52.870;9.578;2023-12-07T06:57:54;100977.69;;;11.92;55.11
3544;BME280;1786;52.870;9.578;2023-12-07T07:00:21;100975.41;;;12.15;55.00
3544;BME280;1786;52.870;9.578;2023-12-07T07:02:49;100977.84;;;12.18;54.59
3544;BME280;1786;52.870;9.578;2023-12-07T07:05:16;100972.16;;;12.24;54.57
3544;BME280;1786;52.870;9.578;2023-12-07T07:07:42;100979.16;;;12.25;54.31
3544;BME280;1786;52.870;9.578;2023-12-07T07:10:09;100988.03;;;12.24;54.53
3544;BME280;1786;52.870;9.578;2023-12-07T07:12:36;100978.66;;;12.32;54.26
3544;BME280;1786;52.870;9.578;2023-12-07T07:15:03;100975.41;;;12.42;54.09
3544;BME280;1786;52.870;9.578;2023-12-07T07:17:30;100977.25;;;12.27;54.24
3544;BME280;1786;52.870;9.578;2023-12-07T07:19:58;100980.81;;;12.40;53.68
3544;BME280;1786;52.870;9.578;2023-12-07T07:22:26;100980.28;;;12.35;54.38
3544;BME280;1786;52.870;9.578;2023-12-07T07:24:53;100982.16;;;12.33;54.52
3544;BME280;1786;52.870;9.578;2023-12-07T07:27:19;100979.25;;;12.23;54.26
3544;BME280;1786;52.870;9.578;2023-12-07T07:29:46;100979.31;;;12.36;54.39
3544;BME280;1786;52.870;9.578;2023-12-07T07:32:13;100985.38;;;12.38;54.10
3544;BME280;1786;52.870;9.578;2023-12-07T07:34:40;100984.78;;;12.47;53.88
3544;BME280;1786;52.870;9.578;2023-12-07T07:37:07;100987.97;;;12.52;53.89
3544;BME280;1786;52.870;9.578;2023-12-07T07:39:34;100984.38;;;12.53;53.85
3544;BME280;1786;52.870;9.578;2023-12-07T07:42:01;100989.66;;;12.53;54.20
3544;BME280;1786;52.870;9.578;2023-12-07T07:44:28;100988.56;;;12.43;54.42
3544;BME280;1786;52.870;9.578;2023-12-07T07:46:55;100987.97;;;12.52;54.18
3544;BME280;1786;52.870;9.578;2023-12-07T07:49:21;100990.31;;;12.57;54.00
3544;BME280;1786;52.870;9.578;2023-12-07T07:51:49;100989.66;;;12.53;53.83
3544;BME280;1786;52.870;9.578;2023-12-07T07:54:16;100993.72;;;12.59;54.06
3544;BME280;1786;52.870;9.578;2023-12-07T07:56:43;100999.13;;;12.58;53.86
3544;BME280;1786;52.870;9.578;2023-12-07T07:59:09;101002.16;;;12.51;54.33
3544;BME280;1786;52.870;9.578;2023-12-07T08:01:38;101002.72;;;12.56;53.96
3544;BME280;1786;52.870;9.578;2023-12-07T08:04:05;101006.00;;;12.47;54.27
3544;BME280;1786;52.870;9.578;2023-12-07T08:06:32;101013.22;;;12.58;54.15
3544;BME280;1786;52.870;9.578;2023-12-07T08:09:02;101015.69;;;12.61;54.22
3544;BME280;1786;52.870;9.578;2023-12-07T08:11:30;101014.72;;;12.62;54.04
3544;BME280;1786;52.870;9.578;2023-12-07T08:13:56;101016.22;;;12.66;54.30
3544;BME280;1786;52.870;9.578;2023-12-07T08:16:23;101017.50;;;12.61;54.46
3544;BME280;1786;52.870;9.578;2023-12-07T08:18:50;101023.03;;;12.70;54.03
3544;BME280;1786;52.870;9.578;2023-12-07T08:21:23;101023.31;;;12.80;54.24
3544;BME280;1786;52.870;9.578;2023-12-07T08:23:56;101021.69;;;12.77;54.06
3544;BME280;1786;52.870;9.578;2023-12-07T08:26:22;101015.94;;;12.71;53.92
3544;BME280;1786;52.870;9.578;2023-12-07T08:28:49;101021.13;;;12.72;54.11
3544;BME280;1786;52.870;9.578;2023-12-07T08:31:16;101022.03;;;12.86;54.01
3544;BME280;1786;52.870;9.578;2023-12-07T08:33:44;101015.88;;;12.85;53.98
3544;BME280;1786;52.870;9.578;2023-12-07T08:36:10;101020.44;;;12.83;53.90
3544;BME280;1786;52.870;9.578;2023-12-07T08:38:37;101023.63;;;12.61;54.34
3544;BME280;1786;52.870;9.578;2023-12-07T08:41:04;101026.28;;;12.61;54.68
3544;BME280;1786;52.870;9.578;2023-12-07T08:43:30;101024.41;;;12.49;54.81
3544;BME280;1786;52.870;9.578;2023-12-07T08:45:57;101020.56;;;12.40;55.06
3544;BME280;1786;52.870;9.578;2023-12-07T08:48:27;101027.56;;;12.41;55.46
3544;BME280;1786;52.870;9.578;2023-12-07T08:50:54;101019.91;;;12.37;55.25
3544;BME280;1786;52.870;9.578;2023-12-07T08:53:21;101023.59;;;12.34;55.41
3544;BME280;1786;52.870;9.578;2023-12-07T08:55:47;101027.28;;;12.31;55.25
3544;BME280;1786;52.870;9.578;2023-12-07T08:58:14;101027.75;;;12.38;55.44
3544;BME280;1786;52.870;9.578;2023-12-07T09:00:41;101020.41;;;12.29;55.57
3544;BME280;1786;52.870;9.578;2023-12-07T09:03:07;101028.91;;;12.34;55.36
3544;BME280;1786;52.870;9.578;2023-12-07T09:05:34;101022.97;;;12.16;55.80
3544;BME280;1786;52.870;9.578;2023-12-07T09:08:01;101018.56;;;11.88;56.48
3544;BME280;1786;52.870;9.578;2023-12-07T09:10:28;101024.53;;;11.61;57.11
3544;BME280;1786;52.870;9.578;2023-12-07T09:12:54;101033.81;;;11.68;57.44
3544;BME280;1786;52.870;9.578;2023-12-07T09:15:21;101026.09;;;11.94;56.78
3544;BME280;1786;52.870;9.578;2023-12-07T09:17:48;101037.84;;;11.90;56.78
3544;BME280;1786;52.870;9.578;2023-12-07T09:20:17;101044.84;;;12.20;55.92
3544;BME280;1786;52.870;9.578;2023-12-07T09:22:45;101046.41;;;12.37;55.65
3544;BME280;1786;52.870;9.578;2023-12-07T09:25:12;101050.28;;;12.45;55.78
3544;BME280;1786;52.870;9.578;2023-12-07T09:27:40;101048.22;;;12.22;56.03
3544;BME280;1786;52.870;9.578;2023-12-07T09:30:10;101047.06;;;12.40;55.77
3544;BME280;1786;52.870;9.578;2023-12-07T09:32:41;101049.19;;;12.21;56.14
3544;BME280;1786;52.870;9.578;2023-12-07T09:35:10;101058.81;;;12.36;55.96
3544;BME280;1786;52.870;9.578;2023-12-07T09:37:42;101063.88;;;12.53;55.54
3544;BME280;1786;52.870;9.578;2023-12-07T09:40:14;101061.22;;;12.68;54.97
3544;BME280;1786;52.870;9.578;2023-12-07T09:42:42;101059.91;;;12.61;55.02
3544;BME280;1786;52.870;9.578;2023-12-07T09:45:09;101053.81;;;12.73;54.90
3544;BME280;1786;52.870;9.578;2023-12-07T09:47:37;101060.69;;;12.48;55.02
3544;BME280;1786;52.870;9.578;2023-12-07T09:50:07;101054.25;;;12.38;55.65
3544;BME280;1786;52.870;9.578;2023-12-07T09:52:38;101059.78;;;12.35;55.68
3544;BME280;1786;52.870;9.578;2023-12-07T09:55:09;101057.47;;;12.43;55.88
3544;BME280;1786;52.870;9.578;2023-12-07T09:57:39;101054.94;;;12.69;55.05
3544;BME280;1786;52.870;9.578;2023-12-07T10:00:06;101050.13;;;12.61;55.24
3544;BME280;1786;52.870;9.578;2023-12-07T10:02:37;101046.28;;;12.52;55.88
3544;BME280;1786;52.870;9.578;2023-12-07T10:05:05;101051.75;;;12.22;56.15
3544;BME280;1786;52.870;9.578;2023-12-07T10:07:36;101050.66;;;12.39;55.92
3544;BME280;1786;52.870;9.578;2023-12-07T10:10:05;101046.03;;;12.70;55.35
3544;BME280;1786;52.870;9.578;2023-12-07T10:12:32;101050.72;;;12.93;55.37
3544;BME280;1786;52.870;9.578;2023-12-07T10:15:07;101052.84;;;13.01;55.00
3544;BME280;1786;52.870;9.578;2023-12-07T10:20:19;101045.97;;;13.11;54.77
3544;BME280;1786;52.870;9.578;2023-12-07T10:25:33;101044.38;;;13.09;54.83
3544;BME280;1786;52.870;9.578;2023-12-07T10:28:00;101044.72;;;13.17;54.81
3544;BME280;1786;52.870;9.578;2023-12-07T10:30:27;101046.09;;;13.23;54.81
3544;BME280;1786;52.870;9.578;2023-12-07T10:32:54;101048.22;;;13.17;54.53
3544;BME280;1786;52.870;9.578;2023-12-07T10:35:21;101041.66;;;13.23;54.68
3544;BME280;1786;52.870;9.578;2023-12-07T10:37:48;101042.88;;;13.05;54.95
3544;BME280;1786;52.870;9.578;2023-12-07T10:40:14;101040.75;;;13.10;54.77
3544;BME280;1786;52.870;9.578;2023-12-07T10:42:42;101046.25;;;12.94;55.45
3544;BME280;1786;52.870;9.578;2023-12-07T10:45:14;101038.03;;;12.84;55.47
3544;BME280;1786;52.870;9.578;2023-12-07T10:47:44;101041.78;;;12.94;55.46
3544;BME280;1786;52.870;9.578;2023-12-07T10:50:13;101028.03;;;12.75;55.66
3544;BME280;1786;52.870;9.578;2023-12-07T10:52:46;101038.31;;;13.07;54.90
3544;BME280;1786;52.870;9.578;2023-12-07T10:55:20;101033.69;;;12.83;55.68
3544;BME280;1786;52.870;9.578;2023-12-07T10:57:47;101029.56;;;12.65;55.73
3544;BME280;1786;52.870;9.578;2023-12-07T11:00:14;101031.41;;;13.04;55.19
3544;BME280;1786;52.870;9.578;2023-12-07T11:02:42;101022.66;;;12.89;55.37
3544;BME280;1786;52.870;9.578;2023-12-07T11:05:10;101024.41;;;12.49;56.01
3544;BME280;1786;52.870;9.578;2023-12-07T11:07:45;101023.53;;;12.63;55.91
3544;BME280;1786;52.870;9.578;2023-12-07T11:11:01;101019.09;;;12.63;56.16
3544;BME280;1786;52.870;9.578;2023-12-07T11:13:12;101025.66;;;12.58;56.17
3544;BME280;1786;52.870;9.578;2023-12-07T11:15:39;101024.34;;;12.50;56.45
3544;BME280;1786;52.870;9.578;2023-12-07T11:18:07;101027.88;;;12.64;56.39
3544;BME280;1786;52.870;9.578;2023-12-07T11:20:45;101028.47;;;12.82;56.27
3544;BME280;1786;52.870;9.578;2023-12-07T11:23:17;101015.25;;;12.67;56.48
3544;BME280;1786;52.870;9.578;2023-12-07T11:25:48;101022.59;;;12.64;56.18
3544;BME280;1786;52.870;9.578;2023-12-07T11:28:15;101016.97;;;12.41;56.74
3544;BME280;1786;52.870;9.578;2023-12-07T11:30:45;101015.50;;;12.08;57.62
3544;BME280;1786;52.870;9.578;2023-12-07T11:33:14;101008.25;;;12.12;57.31
3544;BME280;1786;52.870;9.578;2023-12-07T11:36:13;101001.63;;;12.73;56.58
3544;BME280;1786;52.870;9.578;2023-12-07T11:41:50;101003.00;;;13.19;55.87
3544;BME280;1786;52.870;9.578;2023-12-07T11:44:17;101002.13;;;13.46;55.05
3544;BME280;1786;52.870;9.578;2023-12-07T11:46:45;100999.13;;;13.50;55.17
3544;BME280;1786;52.870;9.578;2023-12-07T11:49:12;100993.19;;;13.47;54.54
3544;BME280;1786;52.870;9.578;2023-12-07T11:51:54;100992.44;;;13.45;54.80
3544;BME280;1786;52.870;9.578;2023-12-07T11:54:22;100986.72;;;13.51;54.52
3544;BME280;1786;52.870;9.578;2023-12-07T11:56:55;100989.47;;;13.62;54.81
3544;BME280;1786;52.870;9.578;2023-12-07T11:59:22;100996.16;;;13.68;54.19
3544;BME280;1786;52.870;9.578;2023-12-07T12:02:00;100999.47;;;13.58;54.70
3544;BME280;1786;52.870;9.578;2023-12-07T12:04:29;100995.00;;;13.72;54.60
3544;BME280;1786;52.870;9.578;2023-12-07T12:06:56;100994.69;;;13.51;54.51
3544;BME280;1786;52.870;9.578;2023-12-07T12:09:26;100984.97;;;13.24;55.09
3544;BME280;1786;52.870;9.578;2023-12-07T12:11:59;100988.88;;;13.06;55.43
3544;BME280;1786;52.870;9.578;2023-12-07T12:14:29;100983.59;;;12.24;57.38
3544;BME280;1786;52.870;9.578;2023-12-07T12:16:56;100981.84;;;11.96;58.17
3544;BME280;1786;52.870;9.578;2023-12-07T12:19:23;100988.81;;;12.26;57.52
3544;BME280;1786;52.870;9.578;2023-12-07T12:22:01;100985.75;;;12.32;57.78
3544;BME280;1786;52.870;9.578;2023-12-07T12:24:32;100982.91;;;12.35;57.56
3544;BME280;1786;52.870;9.578;2023-12-07T12:26:59;100982.28;;;12.59;57.07
3544;BME280;1786;52.870;9.578;2023-12-07T12:29:26;100985.31;;;12.80;56.42
3544;BME280;1786;52.870;9.578;2023-12-07T12:32:01;100979.75;;;13.10;56.00
3544;BME280;1786;52.870;9.578;2023-12-07T12:34:28;100980.81;;;13.07;56.16
3544;BME280;1786;52.870;9.578;2023-12-07T12:36:56;100980.81;;;13.20;55.86
3544;BME280;1786;52.870;9.578;2023-12-07T12:39:28;100980.22;;;13.29;55.75
3544;BME280;1786;52.870;9.578;2023-12-07T12:42:00;100973.06;;;13.17;55.75
3544;BME280;1786;52.870;9.578;2023-12-07T12:44:30;100980.81;;;13.20;55.46
3544;BME280;1786;52.870;9.578;2023-12-07T12:47:07;100963.22;;;13.19;55.51
3544;BME280;1786;52.870;9.578;2023-12-07T12:49:38;100955.69;;;13.13;55.75
3544;BME280;1786;52.870;9.578;2023-12-07T12:52:10;100951.47;;;13.36;55.43
3544;BME280;1786;52.870;9.578;2023-12-07T12:54:37;100961.66;;;13.29;55.45
3544;BME280;1786;52.870;9.578;2023-12-07T12:57:06;100956.28;;;12.91;56.51
3544;BME280;1786;52.870;9.578;2023-12-07T12:59:34;100955.00;;;12.96;56.16
3544;BME280;1786;52.870;9.578;2023-12-07T13:02:02;100958.94;;;13.04;56.33
3544;BME280;1786;52.870;9.578;2023-12-07T13:04:31;100951.34;;;13.37;55.42
3544;BME280;1786;52.870;9.578;2023-12-07T13:07:07;100957.63;;;13.36;55.46
3544;BME280;1786;52.870;9.578;2023-12-07T13:09:35;100959.00;;;13.29;55.19
3544;BME280;1786;52.870;9.578;2023-12-07T13:12:01;100961.31;;;13.21;55.74
3544;BME280;1786;52.870;9.578;2023-12-07T13:14:32;100963.03;;;13.35;55.27
3544;BME280;1786;52.870;9.578;2023-12-07T13:17:02;100948.56;;;13.26;55.63
3544;BME280;1786;52.870;9.578;2023-12-07T13:19:30;100945.25;;;12.97;55.81
3544;BME280;1786;52.870;9.578;2023-12-07T13:21:59;100942.28;;;13.14;55.59
3544;BME280;1786;52.870;9.578;2023-12-07T13:24:26;100946.75;;;13.14;55.44
3544;BME280;1786;52.870;9.578;2023-12-07T13:26:53;100952.88;;;12.89;56.28